Hovedside
METAR-TAF:

METAR-TAF

Lufthavner :

Kärdla, Estland

Kärdla lufthavn

breddegrad: 58-59N, lengdegrad: 022-49E, høyde over havet: 5 m

Gjeldene værobservasjon

Denne rapporten ble laget for 47 minutter siden, klokken 06:50 UTC
Vind 13 kt fra Nordvest med vindkast opp mot 23 kt
Temperatur 6°C
Luftfuktighet 87%
Trykk 1002 hPa
Sikt 10 km eller mer
Brutte skyer i en høyde av 600 ft

METAR: EEKA 210650Z 31013G23KT 9999 BKN006 06/04 Q1002

Tid: 10:37 (07:37 UTC)

Varsel

Denne rapporten ble laget for 3 timer og 37 minutter siden, klokken 04:00 UTC
Varsel gyldig fra 21. klokken 05 UTC til 21. klokken 11 UTC
Vind 20 kt fra Nordvest med vindkast opp mot 30 kt
Sikt 10 km eller mer
Spredte skyer i en høyde av 600 ft
Midlertidig
fra 21. klokken 05 UTC til 21. klokken 08 UTC
Sikt: 1200 m
Brutte skyer i en høyde av 300 ft
dis
Blir
fra 21. klokken 09 UTC til 21. klokken 11 UTC
Vind 15 kt fra Nordvest

TAF: EEKA 210400Z 2105/2111 32020G30KT 9999 SCT006 TEMPO 2105/2108 1200 BR BKN003 BECMG 2109/2111 31015KT

Værobservasjoner og værvarsel for over 4000 flyplasser (METAR- og TAF-rapporter).

Tilgjengelige stasjoner er representert av de røde og gule prikkene på kartet.

Hold musepekeren over prikken for å se navnet på stasjonen.

Klikk så for å se værobservasjoner og -varsler.

For å forandre kartet kan du klikke på den grønne knappen med svart kryss for å zoome inn, på den grønne knappen med strek for å zoome ut, eller på de grønne pilene for å se tilstøtende kart.


METAR-TAF: